Weather reports worldwide

Advertisment
Luchon/SA, France (7724): temperature & dewpoint: 14.10.2018 16:00:00 - 20.10.2018 16:00:00 (CEST)Luchon/SA, France (7724): wind speed & gusts: 14.10.2018 16:00:00 - 20.10.2018 16:00:00 (CEST)Luchon/SA, France (7724): wind direction: 14.10.2018 16:00:00 - 20.10.2018 16:00:00 (CEST)Luchon/SA, France (7724): precipitation: 14.10.2018 16:00:00 - 20.10.2018 16:00:00 (CEST)
Date & Time tt [°C] td [°C] ff [km/h] ff [kn] fx [km/h] fx [kn] dd rr [mm]
20.10.2018 16:00:00 - - - - - - - -
20.10.2018 15:00:00 18,2 13,9 4 2 11 6 NNE 0,0
20.10.2018 14:00:00 18,8 14,7 0 0 8 4 N -
20.10.2018 13:00:00 16,6 14,4 5 3 18 10 NE 0,0
20.10.2018 12:00:00 15,4 14,4 8 4 15 8 N 0,0
20.10.2018 11:00:00 15,0 14,2 0 0 5 3 N 0,0
20.10.2018 10:00:00 14,6 14,0 2 1 8 4 E 0,0
20.10.2018 09:00:00 14,4 13,8 0 0 5 3 N 0,0
20.10.2018 08:00:00 14,3 13,7 0 0 8 4 N -
20.10.2018 07:00:00 14,4 13,8 2 1 5 3 NW 0,0
20.10.2018 06:00:00 14,6 14,0 4 2 5 3 W 0,0
20.10.2018 05:00:00 14,7 13,9 0 0 8 4 N 0,8
20.10.2018 04:00:00 15,0 14,2 0 0 5 3 N 0,4
20.10.2018 03:00:00 15,0 14,2 2 1 4 2 NNE 0,0
20.10.2018 02:00:00 15,1 14,1 0 0 4 2 N -
20.10.2018 01:00:00 15,1 14,1 2 1 5 3 ENE 0,0
20.10.2018 00:00:00 15,2 14,2 2 1 4 2 E 0,0
19.10.2018 23:00:00 15,3 14,2 0 0 5 3 N 0,0
19.10.2018 22:00:00 15,5 14,2 0 0 8 4 N 0,0
19.10.2018 21:00:00 15,8 14,2 2 1 11 6 NNW 0,0
19.10.2018 20:00:00 16,5 14,0 2 1 21 11 SW -
19.10.2018 19:00:00 17,5 13,0 8 4 22 12 NNE 0,0
19.10.2018 18:00:00 18,3 12,7 9 5 29 16 N 0,0
19.10.2018 17:00:00 18,8 12,8 11 6 28 15 N 0,0
19.10.2018 16:00:00 18,9 12,4 15 8 31 17 N 0,0
19.10.2018 15:00:00 19,6 12,4 15 8 29 16 N 0,0
19.10.2018 14:00:00 20,4 12,1 9 5 16 9 NNE -
19.10.2018 13:00:00 18,1 10,9 4 2 9 5 S 0,0
19.10.2018 12:00:00 16,4 12,4 0 0 8 4 N 0,0
19.10.2018 11:00:00 12,7 11,8 0 0 5 3 N 0,0
19.10.2018 10:00:00 11,3 10,7 2 1 8 4 E 0,0
19.10.2018 09:00:00 10,5 9,9 2 1 5 3 WSW 0,0
19.10.2018 08:00:00 9,4 8,8 4 2 8 4 S -
19.10.2018 07:00:00 9,6 9,0 0 0 8 4 N 0,0
19.10.2018 06:00:00 9,8 9,2 0 0 5 3 N 0,0
19.10.2018 05:00:00 10,6 10,0 0 0 9 5 N 0,0
19.10.2018 04:00:00 11,2 10,4 2 1 5 3 SSE 0,0
19.10.2018 03:00:00 12,6 11,7 2 1 5 3 N 0,0
19.10.2018 02:00:00 13,4 12,5 0 0 9 5 N -
19.10.2018 01:00:00 13,7 12,8 8 4 11 6 SE 0,0
19.10.2018 00:00:00 13,9 12,8 0 0 5 3 N 0,0
18.10.2018 23:00:00 14,1 12,8 2 1 5 3 NW 0,0
18.10.2018 22:00:00 14,3 12,7 0 0 9 5 N 0,0
18.10.2018 21:00:00 14,4 12,6 2 1 9 5 NNE 0,0
18.10.2018 20:00:00 14,6 12,6 4 2 9 5 NE -
18.10.2018 19:00:00 15,1 12,4 4 2 15 8 N 0,0
18.10.2018 18:00:00 15,3 12,4 8 4 21 11 NE 0,0
18.10.2018 17:00:00 15,7 12,4 11 6 18 10 NNE 0,0
18.10.2018 16:00:00 16,0 13,1 11 6 22 12 NNE 0,0
18.10.2018 15:00:00 15,9 12,3 8 4 15 8 NNE 0,0
18.10.2018 14:00:00 15,5 12,4 8 4 16 9 N -
18.10.2018 13:00:00 16,2 11,6 4 2 11 6 NW 0,0
18.10.2018 12:00:00 14,0 11,0 2 1 13 7 E 0,0
18.10.2018 11:00:00 12,3 11,0 4 2 8 4 NW 0,0
18.10.2018 10:00:00 11,2 10,4 2 1 4 2 NE 0,0
18.10.2018 09:00:00 10,6 10,0 2 1 5 3 NNW 0,0
18.10.2018 08:00:00 10,2 9,6 4 2 5 3 S -
18.10.2018 07:00:00 9,5 8,7 2 1 9 5 ENE 0,0
18.10.2018 06:00:00 10,6 9,8 4 2 11 6 NNW 0,0
18.10.2018 05:00:00 10,6 9,7 2 1 13 7 NW 0,0
18.10.2018 04:00:00 11,6 10,7 4 2 9 5 S 0,0
18.10.2018 03:00:00 12,4 11,3 4 2 8 4 N 0,0
18.10.2018 02:00:00 13,1 11,8 4 2 9 5 S -
18.10.2018 01:00:00 12,9 11,8 4 2 8 4 SE 0,0
18.10.2018 00:00:00 13,0 11,9 4 2 8 4 N 0,0
17.10.2018 23:00:00 13,5 12,1 2 1 9 5 NW 0,0
17.10.2018 22:00:00 14,0 12,2 0 0 4 2 N 0,0
17.10.2018 21:00:00 14,2 11,9 0 0 5 3 N 0,0
17.10.2018 20:00:00 14,7 11,7 4 2 15 8 NNE -
17.10.2018 19:00:00 15,0 11,4 5 3 18 10 NNE 0,0
17.10.2018 18:00:00 15,2 11,2 8 4 29 16 NNE 0,0
17.10.2018 17:00:00 16,6 10,9 15 8 34 18 N 0,0
17.10.2018 16:00:00 17,8 11,4 18 10 28 15 N 0,0
17.10.2018 15:00:00 18,1 11,4 15 8 34 18 N 0,0
17.10.2018 14:00:00 17,7 11,3 16 9 28 15 N -
17.10.2018 13:00:00 16,3 11,2 13 7 22 12 N 0,0
17.10.2018 12:00:00 16,6 10,7 2 1 9 5 E 0,0
17.10.2018 11:00:00 13,9 12,1 4 2 9 5 ESE 0,0
17.10.2018 10:00:00 10,8 10,2 2 1 8 4 NNE 0,0
17.10.2018 09:00:00 11,4 10,8 4 2 9 5 N 0,0
17.10.2018 08:00:00 11,7 11,1 4 2 8 4 SE -
17.10.2018 07:00:00 11,9 11,3 2 1 5 3 SSW 0,0
17.10.2018 06:00:00 12,0 11,4 4 2 8 4 E 0,0
17.10.2018 05:00:00 12,1 11,5 2 1 11 6 E 0,0
17.10.2018 04:00:00 11,9 11,1 5 3 8 4 SE 0,0
17.10.2018 03:00:00 12,4 11,6 0 0 4 2 N 0,0
17.10.2018 02:00:00 13,0 12,2 0 0 4 2 N -
17.10.2018 01:00:00 13,2 12,3 2 1 4 2 SSW 0,4
17.10.2018 00:00:00 13,4 12,5 0 0 4 2 N 0,4
16.10.2018 23:00:00 13,6 12,5 0 0 9 5 N 0,4
16.10.2018 22:00:00 13,6 12,0 0 0 8 4 N 0,0
16.10.2018 21:00:00 14,3 11,8 4 2 9 5 S 0,0
16.10.2018 20:00:00 15,1 11,3 4 2 18 10 NNW -
16.10.2018 19:00:00 16,2 10,5 5 3 29 16 N 0,0
16.10.2018 18:00:00 16,9 10,5 16 9 35 19 N 0,0
16.10.2018 17:00:00 17,3 10,2 15 8 34 18 N 0,0
16.10.2018 16:00:00 18,2 10,3 18 10 41 22 N 0,0
16.10.2018 15:00:00 18,8 10,4 22 12 41 22 N 0,0
16.10.2018 14:00:00 18,7 10,5 21 11 41 22 N -
16.10.2018 13:00:00 18,0 9,6 8 4 16 9 N 0,0
16.10.2018 12:00:00 14,9 10,5 0 0 8 4 N 0,0
16.10.2018 11:00:00 11,5 10,7 4 2 8 4 SE 0,0
16.10.2018 10:00:00 7,8 7,2 0 0 4 2 N 0,0
16.10.2018 09:00:00 7,8 7,2 2 1 5 3 E 0,0
16.10.2018 08:00:00 7,4 6,8 0 0 5 3 N -
16.10.2018 07:00:00 7,0 6,4 0 0 5 3 N 0,0
16.10.2018 06:00:00 7,3 6,7 4 2 8 4 NNW 0,0
16.10.2018 05:00:00 7,2 6,6 2 1 5 3 NW 0,0
16.10.2018 04:00:00 7,1 6,5 4 2 8 4 N 0,0
16.10.2018 03:00:00 7,5 6,9 0 0 8 4 N 0,0
16.10.2018 02:00:00 8,1 7,3 2 1 5 3 N -
16.10.2018 01:00:00 8,6 7,8 0 0 8 4 N 0,0
16.10.2018 00:00:00 8,7 7,8 2 1 11 6 N 0,0
15.10.2018 23:00:00 9,8 8,9 0 0 8 4 N 0,0
15.10.2018 22:00:00 10,5 9,4 4 2 5 3 NNW 0,0
15.10.2018 21:00:00 11,9 10,1 0 0 5 3 N 0,0
15.10.2018 20:00:00 13,4 10,7 0 0 8 4 N -
15.10.2018 19:00:00 14,1 10,1 5 3 18 10 NNE 0,0
15.10.2018 18:00:00 14,8 10,0 9 5 18 10 N 0,0
15.10.2018 17:00:00 15,1 9,7 5 3 16 9 NE 0,0
15.10.2018 16:00:00 15,2 8,9 8 4 18 10 NE 0,0
15.10.2018 15:00:00 15,2 8,4 4 2 9 5 NNE 0,0
15.10.2018 14:00:00 14,5 8,0 2 1 15 8 ESE -
15.10.2018 13:00:00 14,0 8,8 4 2 9 5 NNE 0,0
15.10.2018 12:00:00 12,1 8,0 4 2 11 6 NNE 0,0
15.10.2018 11:00:00 11,4 8,3 2 1 8 4 NNE 0,0
15.10.2018 10:00:00 9,4 8,0 2 1 8 4 SW 0,0
15.10.2018 09:00:00 8,2 7,1 2 1 8 4 ESE 0,0
15.10.2018 08:00:00 8,3 6,9 0 0 13 7 N -
15.10.2018 07:00:00 8,3 6,8 9 5 18 10 SSE 0,0
15.10.2018 06:00:00 8,6 6,6 8 4 21 11 S 0,0
15.10.2018 05:00:00 8,4 5,7 15 8 22 12 S 4,0
15.10.2018 04:00:00 8,9 7,0 11 6 22 12 S 5,0
15.10.2018 03:00:00 9,6 7,9 8 4 26 14 S 6,0
15.10.2018 02:00:00 10,4 8,3 8 4 15 8 S -
15.10.2018 01:00:00 11,4 10,5 0 0 5 3 N 5,0
15.10.2018 00:00:00 11,7 10,8 4 2 11 6 NE 3,0
14.10.2018 23:00:00 11,7 10,8 4 2 9 5 SE 1,0
14.10.2018 22:00:00 11,7 10,6 4 2 18 10 N 3,0
14.10.2018 21:00:00 12,1 10,8 9 5 28 15 NNE 0,4
14.10.2018 20:00:00 12,8 11,5 13 7 37 20 NNE -
14.10.2018 19:00:00 13,9 12,3 22 12 41 22 NNE 2,0
14.10.2018 18:00:00 15,5 13,0 18 10 52 28 N 0,2
14.10.2018 17:00:00 17,7 13,8 24 13 50 27 N 0,0
14.10.2018 16:00:00 23,5 6,7 11 6 35 19 ESE 0,0

tt = temperature
td = dewpoint
ff = wind speed
fx = gusts
dd = wind direction
rr = precipitation

Next stations